createdAt,value
2022-12-27T00:02:12.279Z,2.53
2022-12-27T00:04:40.485Z,2.48
2022-12-27T00:07:08.810Z,2.42
2022-12-27T00:09:36.764Z,2.36
2022-12-27T00:12:09.679Z,2.30
2022-12-27T00:14:37.622Z,2.24
2022-12-27T00:17:05.683Z,2.20
2022-12-27T00:19:33.496Z,2.15
2022-12-27T00:24:54.344Z,2.08
2022-12-27T00:27:23.648Z,2.09
2022-12-27T00:29:51.619Z,2.09
2022-12-27T00:32:19.624Z,2.09
2022-12-27T00:34:47.480Z,2.10
2022-12-27T00:37:15.325Z,2.10
2022-12-27T00:39:43.151Z,2.09
2022-12-27T00:42:11.117Z,2.09
2022-12-27T00:44:40.452Z,2.08
2022-12-27T00:47:08.328Z,2.07
2022-12-27T00:49:36.544Z,2.04
2022-12-27T00:52:04.735Z,1.98
2022-12-27T00:54:32.614Z,1.93
2022-12-27T00:57:03.689Z,1.91
2022-12-27T00:59:31.562Z,1.89
2022-12-27T01:02:00.877Z,1.88
2022-12-27T01:04:30.195Z,1.88
2022-12-27T01:06:58.033Z,1.88
2022-12-27T01:09:25.897Z,1.86
2022-12-27T01:11:53.797Z,1.85
2022-12-27T01:14:21.620Z,1.85
2022-12-27T01:16:49.595Z,1.86
2022-12-27T01:19:19.099Z,1.87
2022-12-27T01:21:46.881Z,1.89
2022-12-27T01:24:14.765Z,1.89
2022-12-27T01:26:42.628Z,1.87
2022-12-27T01:29:12.737Z,1.87
2022-12-27T01:31:40.824Z,1.87
2022-12-27T01:34:08.632Z,1.86
2022-12-27T01:36:37.883Z,1.83
2022-12-27T01:39:05.832Z,1.80
2022-12-27T01:41:54.153Z,1.78
2022-12-27T01:44:52.255Z,1.74
2022-12-27T01:47:32.395Z,1.74
2022-12-27T01:50:08.043Z,1.74
2022-12-27T01:52:42.345Z,1.72
2022-12-27T01:55:17.831Z,1.69
2022-12-27T01:57:47.088Z,1.66
2022-12-27T02:00:16.986Z,1.67
2022-12-27T02:02:45.178Z,1.67
2022-12-27T02:05:16.099Z,1.69
2022-12-27T02:07:58.181Z,1.68
2022-12-27T02:10:29.012Z,1.70
2022-12-27T02:12:58.153Z,1.72
2022-12-27T02:15:26.135Z,1.73
2022-12-27T02:17:54.045Z,1.72
2022-12-27T02:20:23.791Z,1.73
2022-12-27T02:23:53.888Z,1.74
2022-12-27T02:29:53.489Z,1.76
2022-12-27T02:32:28.165Z,1.76
2022-12-27T02:35:08.653Z,1.73
2022-12-27T02:37:42.570Z,1.73
2022-12-27T02:40:30.388Z,1.75
2022-12-27T02:43:16.198Z,1.72
2022-12-27T02:46:09.300Z,1.73
2022-12-27T02:48:54.451Z,1.72
2022-12-27T02:51:52.239Z,1.70
2022-12-27T02:54:36.025Z,1.67
2022-12-27T02:57:11.099Z,1.69
2022-12-27T03:00:16.952Z,1.73
2022-12-27T03:03:24.741Z,1.71
2022-12-27T03:06:42.611Z,1.70
2022-12-27T03:09:43.262Z,1.71
2022-12-27T03:12:34.943Z,1.72
2022-12-27T03:15:31.874Z,1.71
2022-12-27T03:18:09.582Z,1.70
2022-12-27T03:20:57.577Z,1.72
2022-12-27T03:23:44.958Z,1.74
2022-12-27T03:26:14.629Z,1.75
2022-12-27T03:29:17.866Z,1.76
2022-12-27T03:32:04.943Z,1.75
2022-12-27T03:34:39.974Z,1.75
2022-12-27T03:37:29.309Z,1.74
2022-12-27T03:40:06.431Z,1.78
2022-12-27T03:42:56.184Z,1.80
2022-12-27T03:45:44.554Z,1.80
2022-12-27T03:48:18.093Z,1.80
2022-12-27T03:50:51.599Z,1.78
2022-12-27T03:53:25.224Z,1.81
2022-12-27T03:55:53.431Z,1.83
2022-12-27T03:58:21.955Z,1.83
2022-12-27T04:00:49.787Z,1.85
2022-12-27T04:03:17.640Z,1.86
2022-12-27T04:05:46.876Z,1.85
2022-12-27T04:08:32.112Z,1.86
2022-12-27T04:11:17.891Z,1.85
2022-12-27T04:14:03.117Z,1.83
2022-12-27T04:16:48.221Z,1.83
2022-12-27T04:19:33.638Z,1.82
2022-12-27T04:22:20.145Z,1.81
2022-12-27T04:25:05.698Z,1.81
2022-12-27T04:27:50.893Z,1.83
2022-12-27T04:30:36.746Z,1.83
2022-12-27T04:33:22.569Z,1.82
2022-12-27T04:35:50.419Z,1.82
2022-12-27T04:38:19.601Z,1.80
2022-12-27T04:41:04.865Z,1.77
2022-12-27T04:43:50.165Z,1.74
2022-12-27T04:46:42.073Z,1.67
2022-12-27T04:49:32.301Z,1.63
2022-12-27T04:52:17.784Z,1.60
2022-12-27T04:54:58.935Z,1.58
2022-12-27T04:57:28.136Z,1.58
2022-12-27T05:00:13.799Z,1.58
2022-12-27T05:02:42.556Z,1.58
2022-12-27T05:05:11.874Z,1.58
2022-12-27T05:07:57.550Z,1.58
2022-12-27T05:10:45.116Z,1.57
2022-12-27T05:13:30.963Z,1.56
2022-12-27T05:15:59.128Z,1.52
2022-12-27T05:18:27.940Z,1.51
2022-12-27T05:20:55.767Z,1.50
2022-12-27T05:23:41.365Z,1.47
2022-12-27T05:26:10.621Z,1.48
2022-12-27T05:28:38.541Z,1.45
2022-12-27T05:31:06.526Z,1.47
2022-12-27T05:33:34.487Z,1.46
2022-12-27T05:36:02.379Z,1.46
2022-12-27T05:38:30.200Z,1.47
2022-12-27T05:41:02.047Z,1.47
2022-12-27T05:43:31.930Z,1.49
2022-12-27T05:46:04.913Z,1.51
2022-12-27T05:48:32.841Z,1.53
2022-12-27T05:51:05.954Z,1.57
2022-12-27T05:53:33.825Z,1.61
2022-12-27T05:56:01.830Z,1.64
2022-12-27T05:58:31.541Z,1.66
2022-12-27T06:01:00.025Z,1.68
2022-12-27T06:03:28.116Z,1.71
2022-12-27T06:06:02.127Z,1.73
2022-12-27T06:08:30.256Z,1.76
2022-12-27T06:11:07.840Z,1.78
2022-12-27T06:13:38.591Z,1.80
2022-12-27T06:16:08.463Z,1.81
2022-12-27T06:18:37.987Z,1.84
2022-12-27T06:21:07.537Z,1.85
2022-12-27T06:23:38.247Z,1.87
2022-12-27T06:26:06.931Z,1.90
2022-12-27T06:28:35.197Z,1.93
2022-12-27T06:31:04.940Z,1.96
2022-12-27T06:33:32.870Z,1.97
2022-12-27T06:36:00.854Z,2.00
2022-12-27T06:38:28.710Z,2.02
2022-12-27T06:41:02.285Z,2.04
2022-12-27T06:43:31.300Z,2.06
2022-12-27T06:46:00.523Z,2.08
2022-12-27T06:48:30.280Z,2.10
2022-12-27T06:50:58.302Z,2.12
2022-12-27T06:53:26.461Z,2.16
2022-12-27T06:55:54.274Z,2.19
2022-12-27T06:58:22.351Z,2.21
2022-12-27T07:00:50.575Z,2.23
2022-12-27T07:03:18.498Z,2.25
2022-12-27T07:05:47.795Z,2.28
2022-12-27T07:08:15.606Z,2.30
2022-12-27T07:10:43.474Z,2.32
2022-12-27T07:13:11.248Z,2.35
2022-12-27T07:15:39.923Z,2.37
2022-12-27T07:18:07.746Z,2.40
2022-12-27T07:20:36.617Z,2.42
2022-12-27T07:23:05.771Z,2.44
2022-12-27T07:25:33.625Z,2.46
2022-12-27T07:28:01.453Z,2.48
2022-12-27T07:30:30.295Z,2.52
2022-12-27T07:32:58.047Z,2.55
2022-12-27T07:35:25.898Z,2.60
2022-12-27T07:37:53.993Z,2.65
2022-12-27T07:40:23.184Z,2.70
2022-12-27T07:42:51.053Z,2.75
2022-12-27T07:45:19.059Z,2.81
2022-12-27T07:47:46.923Z,2.85
2022-12-27T07:50:14.801Z,2.86
2022-12-27T07:52:42.759Z,2.89
2022-12-27T07:55:10.763Z,2.92
2022-12-27T07:57:40.030Z,2.95
2022-12-27T08:00:09.393Z,2.97
2022-12-27T08:02:39.908Z,3.00
2022-12-27T08:05:08.204Z,3.04
2022-12-27T08:07:37.593Z,3.05
2022-12-27T08:10:05.959Z,3.08
2022-12-27T08:12:33.842Z,3.12
2022-12-27T08:15:03.038Z,3.15
2022-12-27T08:17:31.139Z,3.14
2022-12-27T08:19:58.953Z,3.14
2022-12-27T08:22:27.521Z,3.14
2022-12-27T08:24:56.133Z,3.14
2022-12-27T08:27:25.555Z,3.14
2022-12-27T08:29:53.396Z,3.16
2022-12-27T08:32:22.634Z,3.18
2022-12-27T08:34:50.449Z,3.22
2022-12-27T08:37:18.299Z,3.25
2022-12-27T08:39:46.159Z,3.26
2022-12-27T08:42:14.956Z,3.29
2022-12-27T08:44:42.844Z,3.31
2022-12-27T08:47:10.913Z,3.33
2022-12-27T08:49:40.064Z,3.34
2022-12-27T08:52:07.866Z,3.38
2022-12-27T08:54:36.210Z,3.38
2022-12-27T08:57:04.137Z,3.39
2022-12-27T08:59:31.958Z,3.40
2022-12-27T09:02:00.041Z,3.41
2022-12-27T09:04:27.947Z,3.41
2022-12-27T09:06:57.202Z,3.41
2022-12-27T09:09:25.219Z,3.41
2022-12-27T09:11:53.125Z,3.42
2022-12-27T09:14:21.285Z,3.41
2022-12-27T09:16:50.411Z,3.41
2022-12-27T09:19:18.235Z,3.41
2022-12-27T09:21:46.065Z,3.42
2022-12-27T09:24:15.486Z,3.43
2022-12-27T09:26:43.419Z,3.44
2022-12-27T09:29:11.763Z,3.44
2022-12-27T09:31:39.591Z,3.45
2022-12-27T09:34:07.549Z,3.47
2022-12-27T09:36:35.373Z,3.50
2022-12-27T09:39:03.218Z,3.53
2022-12-27T09:44:42.039Z,3.58
2022-12-27T09:47:14.069Z,3.62
2022-12-27T09:49:46.609Z,3.63
2022-12-27T09:52:20.185Z,3.67
2022-12-27T09:55:02.654Z,3.70
2022-12-27T09:57:38.117Z,3.70
2022-12-27T10:00:14.746Z,3.75
2022-12-27T10:02:44.380Z,3.78
2022-12-27T10:05:22.127Z,3.81
2022-12-27T10:08:09.148Z,3.85
2022-12-27T10:10:47.390Z,3.87
2022-12-27T10:13:45.244Z,3.91
2022-12-27T10:16:24.084Z,3.93
2022-12-27T10:19:06.970Z,3.95
2022-12-27T10:21:38.763Z,3.98
2022-12-27T10:24:20.157Z,4.02
2022-12-27T10:26:48.086Z,4.05
2022-12-27T10:29:22.216Z,4.07
2022-12-27T10:31:50.527Z,4.08
2022-12-27T10:34:24.159Z,4.13
2022-12-27T10:36:53.220Z,4.15
2022-12-27T10:39:24.371Z,4.19
2022-12-27T10:42:01.422Z,4.20
2022-12-27T10:44:31.040Z,4.22
2022-12-27T10:46:58.982Z,4.24
2022-12-27T10:49:29.347Z,4.30
2022-12-27T10:52:00.339Z,4.32
2022-12-27T10:54:30.469Z,4.40
2022-12-27T10:57:17.931Z,4.44
2022-12-27T10:59:47.273Z,4.48
2022-12-27T11:02:20.300Z,4.52
2022-12-27T11:04:59.654Z,4.56
2022-12-27T11:07:32.292Z,4.57
2022-12-27T11:10:06.309Z,4.59
2022-12-27T11:12:36.129Z,4.61
2022-12-27T11:15:08.210Z,4.64
2022-12-27T11:17:39.179Z,4.63
2022-12-27T11:20:21.588Z,4.64
2022-12-27T11:22:53.491Z,4.65
2022-12-27T11:25:22.509Z,4.66
2022-12-27T11:27:53.614Z,4.69
2022-12-27T11:30:26.635Z,4.70
2022-12-27T11:32:54.996Z,4.74
2022-12-27T11:35:24.683Z,4.78
2022-12-27T11:37:53.224Z,4.81
2022-12-27T11:40:30.415Z,4.84
2022-12-27T11:43:07.131Z,4.87
2022-12-27T11:45:41.609Z,4.91
2022-12-27T11:48:22.588Z,4.95
2022-12-27T11:51:11.501Z,5.00
2022-12-27T11:54:10.363Z,5.05
2022-12-27T11:56:42.179Z,5.07
2022-12-27T11:59:28.094Z,5.07
2022-12-27T12:02:27.068Z,5.07
2022-12-27T12:05:17.503Z,5.05
2022-12-27T12:08:03.252Z,5.04
2022-12-27T12:10:43.202Z,5.04
2022-12-27T12:13:42.479Z,5.05
2022-12-27T12:16:34.871Z,5.01
2022-12-27T12:19:20.546Z,4.96
2022-12-27T12:22:01.292Z,4.94
2022-12-27T12:24:53.007Z,4.91
2022-12-27T12:27:48.412Z,4.92
2022-12-27T12:30:38.910Z,4.92
2022-12-27T12:33:33.989Z,4.95
2022-12-27T12:36:22.902Z,4.98
2022-12-27T12:38:58.895Z,5.03
2022-12-27T12:41:47.901Z,5.05
2022-12-27T12:44:36.539Z,5.07
2022-12-27T12:47:21.171Z,5.10
2022-12-27T12:50:07.988Z,5.13
2022-12-27T12:52:57.201Z,5.14
2022-12-27T12:55:39.054Z,5.15
2022-12-27T12:58:18.604Z,5.18
2022-12-27T13:01:04.667Z,5.22
2022-12-27T13:04:01.718Z,5.24
2022-12-27T13:06:55.377Z,5.26
2022-12-27T13:09:38.109Z,5.28
2022-12-27T13:12:13.438Z,5.30
2022-12-27T13:15:00.094Z,5.32
2022-12-27T13:17:39.369Z,5.33
2022-12-27T13:20:28.308Z,5.35
2022-12-27T13:23:08.488Z,5.36
2022-12-27T13:25:46.087Z,5.38
2022-12-27T13:28:29.976Z,5.39
2022-12-27T13:31:02.361Z,5.41
2022-12-27T13:33:36.961Z,5.42
2022-12-27T13:36:19.851Z,5.45
2022-12-27T13:39:14.226Z,5.46
2022-12-27T13:42:08.192Z,5.46
2022-12-27T13:44:46.261Z,5.43
2022-12-27T13:47:43.091Z,5.43
2022-12-27T13:50:24.695Z,5.41
2022-12-27T13:53:23.426Z,5.41
2022-12-27T13:55:56.790Z,5.39
2022-12-27T13:58:59.837Z,5.36
2022-12-27T14:01:48.719Z,5.35
2022-12-27T14:04:35.760Z,5.34
2022-12-27T14:07:21.567Z,5.34
2022-12-27T14:10:12.347Z,5.35
2022-12-27T14:12:59.944Z,5.37
2022-12-27T14:15:57.206Z,5.38
2022-12-27T14:18:58.133Z,5.40
2022-12-27T14:21:45.234Z,5.39
2022-12-27T14:24:26.608Z,5.36
2022-12-27T14:27:27.961Z,5.35
2022-12-27T14:30:27.693Z,5.30
2022-12-27T14:33:39.238Z,5.29
2022-12-27T14:36:38.689Z,5.26
2022-12-27T14:39:28.753Z,5.26
2022-12-27T14:42:37.263Z,5.23
2022-12-27T14:45:57.919Z,5.23
2022-12-27T14:48:59.542Z,5.19
2022-12-27T14:52:03.480Z,5.16
2022-12-27T14:55:04.180Z,5.16
2022-12-27T14:57:40.655Z,5.16
2022-12-27T15:00:16.530Z,5.15
2022-12-27T15:03:13.183Z,5.14
2022-12-27T15:05:56.754Z,5.13
2022-12-27T15:08:49.805Z,5.11
2022-12-27T15:11:27.527Z,5.11
2022-12-27T15:14:11.473Z,5.10
2022-12-27T15:16:50.866Z,5.09
2022-12-27T15:19:33.987Z,5.06
2022-12-27T15:22:13.103Z,5.04
2022-12-27T15:24:53.408Z,4.99
2022-12-27T15:27:29.357Z,4.98
2022-12-27T15:30:11.645Z,4.96
2022-12-27T15:32:53.064Z,4.96
2022-12-27T15:35:44.667Z,4.94
2022-12-27T15:38:41.133Z,4.95
2022-12-27T15:41:37.267Z,4.95
2022-12-27T15:44:26.609Z,4.96
2022-12-27T15:47:16.650Z,4.95
2022-12-27T15:50:14.223Z,4.97
2022-12-27T15:52:57.675Z,4.97
2022-12-27T15:55:42.344Z,4.98
2022-12-27T15:58:18.169Z,5.00
2022-12-27T16:00:47.475Z,5.01
2022-12-27T16:03:35.491Z,5.04
2022-12-27T16:06:05.819Z,5.05
2022-12-27T16:08:36.319Z,5.06
2022-12-27T16:11:07.419Z,5.05
2022-12-27T16:13:42.728Z,5.04
2022-12-27T16:16:33.604Z,5.01
2022-12-27T16:19:21.723Z,4.99
2022-12-27T16:21:49.836Z,4.98
2022-12-27T16:24:20.678Z,4.98
2022-12-27T16:26:58.947Z,4.98
2022-12-27T16:29:32.592Z,4.97
2022-12-27T16:32:20.507Z,4.97
2022-12-27T16:34:51.927Z,4.96
2022-12-27T16:40:50.222Z,4.93
2022-12-27T16:43:47.853Z,4.91
2022-12-27T16:46:37.146Z,4.88
2022-12-27T16:49:24.946Z,4.84
2022-12-27T16:52:08.387Z,4.82
2022-12-27T16:54:49.602Z,4.80
2022-12-27T16:57:34.658Z,4.77
2022-12-27T17:00:05.803Z,4.76
2022-12-27T17:02:41.870Z,4.76
2022-12-27T17:05:37.341Z,4.75
2022-12-27T17:08:19.391Z,4.75
2022-12-27T17:11:02.725Z,4.75
2022-12-27T17:13:43.681Z,4.74
2022-12-27T17:16:20.082Z,4.74
2022-12-27T17:18:53.521Z,4.72
2022-12-27T17:21:30.235Z,4.72
2022-12-27T17:24:01.254Z,4.71
2022-12-27T17:27:06.563Z,4.70
2022-12-27T17:29:51.044Z,4.69
2022-12-27T17:32:30.492Z,4.69
2022-12-27T17:35:09.681Z,4.66
2022-12-27T17:37:46.720Z,4.68
2022-12-27T17:40:27.313Z,4.64
2022-12-27T17:43:25.460Z,4.64
2022-12-27T17:45:59.331Z,4.63
2022-12-27T17:48:29.866Z,4.63
2022-12-27T17:51:02.553Z,4.64
2022-12-27T17:53:47.554Z,4.63
2022-12-27T17:56:36.905Z,4.62
2022-12-27T17:59:08.734Z,4.62
2022-12-27T18:01:41.434Z,4.61
2022-12-27T18:04:09.806Z,4.56
2022-12-27T18:06:39.770Z,4.54
2022-12-27T18:09:08.623Z,4.52
2022-12-27T18:11:36.463Z,4.49
2022-12-27T18:14:05.817Z,4.47
2022-12-27T18:16:39.534Z,4.44
2022-12-27T18:19:07.449Z,4.42
2022-12-27T18:21:35.301Z,4.41
2022-12-27T18:24:24.473Z,4.38
2022-12-27T18:27:01.854Z,4.36
2022-12-27T18:29:29.920Z,4.34
2022-12-27T18:32:02.551Z,4.33
2022-12-27T18:34:36.220Z,4.29
2022-12-27T18:37:06.649Z,4.28
2022-12-27T18:39:39.724Z,4.29
2022-12-27T18:42:17.395Z,4.28
2022-12-27T18:44:48.053Z,4.27
2022-12-27T18:47:20.254Z,4.26
2022-12-27T18:49:54.214Z,4.24
2022-12-27T18:52:26.166Z,4.21
2022-12-27T18:54:55.845Z,4.21
2022-12-27T18:57:33.408Z,4.22
2022-12-27T19:00:03.455Z,4.21
2022-12-27T19:02:35.704Z,4.21
2022-12-27T19:05:23.004Z,4.23
2022-12-27T19:07:55.091Z,4.24
2022-12-27T19:10:26.877Z,4.25
2022-12-27T19:12:55.750Z,4.25
2022-12-27T19:15:28.092Z,4.27
2022-12-27T19:18:00.194Z,4.26
2022-12-27T19:20:30.717Z,4.27
2022-12-27T19:23:01.587Z,4.26
2022-12-27T19:25:32.834Z,4.26
2022-12-27T19:28:24.784Z,4.25
2022-12-27T19:31:09.518Z,4.25
2022-12-27T19:33:37.905Z,4.26
2022-12-27T19:36:10.103Z,4.26
2022-12-27T19:38:47.513Z,4.26
2022-12-27T19:41:17.435Z,4.27
2022-12-27T19:43:47.289Z,4.27
2022-12-27T19:46:18.950Z,4.25
2022-12-27T19:49:07.624Z,4.26
2022-12-27T19:51:38.219Z,4.26
2022-12-27T19:54:13.196Z,4.27
2022-12-27T19:56:42.658Z,4.27
2022-12-27T19:59:16.918Z,4.27
2022-12-27T20:01:45.543Z,4.26
2022-12-27T20:04:13.600Z,4.25
2022-12-27T20:06:42.118Z,4.24
2022-12-27T20:09:14.038Z,4.24
2022-12-27T20:11:43.556Z,4.22
2022-12-27T20:14:11.568Z,4.22
2022-12-27T20:16:39.442Z,4.22
2022-12-27T20:19:07.454Z,4.21
2022-12-27T20:21:35.296Z,4.19
2022-12-27T20:24:03.309Z,4.19
2022-12-27T20:26:31.223Z,4.16
2022-12-27T20:29:00.941Z,4.16
2022-12-27T20:31:29.035Z,4.16
2022-12-27T20:33:57.472Z,4.16
2022-12-27T20:36:25.846Z,4.14
2022-12-27T20:38:53.753Z,4.13
2022-12-27T20:41:22.961Z,4.13
2022-12-27T20:43:55.311Z,4.11
2022-12-27T20:46:24.877Z,4.10
2022-12-27T20:48:57.845Z,4.09
2022-12-27T20:51:27.660Z,4.09
2022-12-27T20:53:56.820Z,4.07
2022-12-27T20:56:25.106Z,4.07
2022-12-27T20:58:53.599Z,4.06
2022-12-27T21:01:25.236Z,4.06
2022-12-27T21:03:54.318Z,4.04
2022-12-27T21:06:23.665Z,4.03
2022-12-27T21:08:56.655Z,4.02
2022-12-27T21:11:27.866Z,3.99
2022-12-27T21:13:56.342Z,3.98
2022-12-27T21:16:28.105Z,3.97
2022-12-27T21:18:57.048Z,3.96
2022-12-27T21:21:28.290Z,3.95
2022-12-27T21:23:57.475Z,3.93
2022-12-27T21:26:27.819Z,3.87
2022-12-27T21:28:56.024Z,3.85
2022-12-27T21:31:25.363Z,3.82
2022-12-27T21:33:53.697Z,3.80
2022-12-27T21:36:24.431Z,3.79
2022-12-27T21:38:53.129Z,3.77
2022-12-27T21:41:23.099Z,3.75
2022-12-27T21:43:51.646Z,3.71
2022-12-27T21:46:21.402Z,3.68
2022-12-27T21:48:56.055Z,3.63
2022-12-27T21:51:24.173Z,3.62
2022-12-27T21:53:52.789Z,3.58
2022-12-27T21:56:21.957Z,3.56
2022-12-27T21:58:51.063Z,3.53
2022-12-27T22:01:20.759Z,3.53
2022-12-27T22:03:52.627Z,3.49
2022-12-27T22:06:22.365Z,3.47
2022-12-27T22:08:51.475Z,3.45
2022-12-27T22:11:20.551Z,3.42
2022-12-27T22:13:48.942Z,3.38
2022-12-27T22:16:19.206Z,3.36
2022-12-27T22:18:48.115Z,3.37
2022-12-27T22:21:20.378Z,3.38
2022-12-27T22:23:50.830Z,3.39
2022-12-27T22:26:20.571Z,3.41
2022-12-27T22:28:49.191Z,3.39
2022-12-27T22:31:19.092Z,3.41
2022-12-27T22:33:47.586Z,3.42
2022-12-27T22:36:18.537Z,3.42
2022-12-27T22:38:49.700Z,3.40
2022-12-27T22:41:20.769Z,3.40
2022-12-27T22:43:51.334Z,3.39
2022-12-27T22:46:20.565Z,3.37
2022-12-27T22:48:51.484Z,3.36
2022-12-27T22:51:23.958Z,3.35
2022-12-27T22:53:51.905Z,3.33
2022-12-27T22:56:21.769Z,3.31
2022-12-27T22:58:50.353Z,3.29
2022-12-27T23:01:20.799Z,3.28
2022-12-27T23:06:38.620Z,3.25
2022-12-27T23:09:07.818Z,3.24
2022-12-27T23:11:38.335Z,3.24
2022-12-27T23:14:10.094Z,3.25
2022-12-27T23:16:38.716Z,3.25
2022-12-27T23:19:07.410Z,3.27
2022-12-27T23:21:35.583Z,3.26
2022-12-27T23:24:05.243Z,3.29
2022-12-27T23:26:33.206Z,3.31
2022-12-27T23:29:01.069Z,3.32
2022-12-27T23:31:29.918Z,3.33
2022-12-27T23:33:57.889Z,3.32
2022-12-27T23:36:26.172Z,3.32
2022-12-27T23:38:55.288Z,3.33
2022-12-27T23:41:25.904Z,3.32
2022-12-27T23:44:33.039Z,3.35
2022-12-27T23:47:03.148Z,3.37
2022-12-27T23:49:31.061Z,3.39
2022-12-27T23:51:58.930Z,3.39
2022-12-27T23:54:29.178Z,3.41
2022-12-27T23:56:58.339Z,3.42
2022-12-27T23:59:46.917Z,3.42
